sensor_id;sensor_type;location;lat;lon;timestamp;temperature;humidity
74511;DHT22;62991;50.040;18.400;2023-07-24T00:01:27;23.60;56.20
74511;DHT22;62991;50.040;18.400;2023-07-24T00:04:30;23.60;56.40
74511;DHT22;62991;50.040;18.400;2023-07-24T00:07:31;23.60;56.40
74511;DHT22;62991;50.040;18.400;2023-07-24T00:10:32;23.60;56.50
74511;DHT22;62991;50.040;18.400;2023-07-24T00:13:32;23.50;56.60
74511;DHT22;62991;50.040;18.400;2023-07-24T00:16:33;23.50;56.90
74511;DHT22;62991;50.040;18.400;2023-07-24T00:19:34;23.50;56.90
74511;DHT22;62991;50.040;18.400;2023-07-24T00:22:34;23.40;57.10
74511;DHT22;62991;50.040;18.400;2023-07-24T00:25:35;23.30;57.40
74511;DHT22;62991;50.040;18.400;2023-07-24T00:28:36;23.30;57.50
74511;DHT22;62991;50.040;18.400;2023-07-24T00:31:36;23.30;57.60
74511;DHT22;62991;50.040;18.400;2023-07-24T00:34:37;23.20;57.90
74511;DHT22;62991;50.040;18.400;2023-07-24T00:37:38;23.20;58.00
74511;DHT22;62991;50.040;18.400;2023-07-24T00:40:39;23.20;58.10
74511;DHT22;62991;50.040;18.400;2023-07-24T00:43:39;23.20;58.00
74511;DHT22;62991;50.040;18.400;2023-07-24T00:46:41;23.20;58.40
74511;DHT22;62991;50.040;18.400;2023-07-24T00:49:42;23.30;58.20
74511;DHT22;62991;50.040;18.400;2023-07-24T00:52:43;23.30;58.40
74511;DHT22;62991;50.040;18.400;2023-07-24T00:55:44;23.20;58.60
74511;DHT22;62991;50.040;18.400;2023-07-24T00:58:45;23.20;58.60
74511;DHT22;62991;50.040;18.400;2023-07-24T01:01:46;23.30;58.60
74511;DHT22;62991;50.040;18.400;2023-07-24T01:04:48;23.20;58.70
74511;DHT22;62991;50.040;18.400;2023-07-24T01:07:49;23.20;59.10
74511;DHT22;62991;50.040;18.400;2023-07-24T01:10:49;23.20;58.90
74511;DHT22;62991;50.040;18.400;2023-07-24T01:16:59;23.20;58.90
74511;DHT22;62991;50.040;18.400;2023-07-24T01:20:03;23.10;59.20
74511;DHT22;62991;50.040;18.400;2023-07-24T01:23:35;23.10;59.30
74511;DHT22;62991;50.040;18.400;2023-07-24T01:26:38;23.20;59.60
74511;DHT22;62991;50.040;18.400;2023-07-24T01:29:39;23.20;59.60
74511;DHT22;62991;50.040;18.400;2023-07-24T01:32:39;23.20;59.90
74511;DHT22;62991;50.040;18.400;2023-07-24T01:35:42;23.10;60.50
74511;DHT22;62991;50.040;18.400;2023-07-24T01:38:44;23.10;60.60
74511;DHT22;62991;50.040;18.400;2023-07-24T01:41:46;23.00;60.70
74511;DHT22;62991;50.040;18.400;2023-07-24T01:44:54;22.90;61.00
74511;DHT22;62991;50.040;18.400;2023-07-24T01:47:55;23.00;60.90
74511;DHT22;62991;50.040;18.400;2023-07-24T01:50:55;23.00;60.80
74511;DHT22;62991;50.040;18.400;2023-07-24T01:53:56;23.10;60.70
74511;DHT22;62991;50.040;18.400;2023-07-24T01:56:57;23.10;60.80
74511;DHT22;62991;50.040;18.400;2023-07-24T01:59:57;23.10;60.70
74511;DHT22;62991;50.040;18.400;2023-07-24T02:02:58;23.10;61.10
74511;DHT22;62991;50.040;18.400;2023-07-24T02:05:59;23.10;61.30
74511;DHT22;62991;50.040;18.400;2023-07-24T02:08:59;23.10;61.20
74511;DHT22;62991;50.040;18.400;2023-07-24T02:12:00;23.10;61.40
74511;DHT22;62991;50.040;18.400;2023-07-24T02:15:02;23.10;60.90
74511;DHT22;62991;50.040;18.400;2023-07-24T02:18:04;23.10;61.20
74511;DHT22;62991;50.040;18.400;2023-07-24T02:21:05;23.10;61.20
74511;DHT22;62991;50.040;18.400;2023-07-24T02:24:05;23.10;60.90
74511;DHT22;62991;50.040;18.400;2023-07-24T02:27:06;22.90;61.40
74511;DHT22;62991;50.040;18.400;2023-07-24T02:30:07;22.70;62.00
74511;DHT22;62991;50.040;18.400;2023-07-24T02:33:08;22.70;62.10
74511;DHT22;62991;50.040;18.400;2023-07-24T02:36:09;22.70;62.40
74511;DHT22;62991;50.040;18.400;2023-07-24T02:39:09;22.60;62.70
74511;DHT22;62991;50.040;18.400;2023-07-24T02:42:10;22.50;62.80
74511;DHT22;62991;50.040;18.400;2023-07-24T02:45:10;22.50;62.90
74511;DHT22;62991;50.040;18.400;2023-07-24T02:48:11;22.40;63.10
74511;DHT22;62991;50.040;18.400;2023-07-24T02:51:12;22.10;63.90
74511;DHT22;62991;50.040;18.400;2023-07-24T02:54:12;22.10;64.10
74511;DHT22;62991;50.040;18.400;2023-07-24T02:57:13;22.10;64.10
74511;DHT22;62991;50.040;18.400;2023-07-24T03:00:14;22.10;64.20
74511;DHT22;62991;50.040;18.400;2023-07-24T03:03:15;22.10;64.20
74511;DHT22;62991;50.040;18.400;2023-07-24T03:06:15;22.00;64.50
74511;DHT22;62991;50.040;18.400;2023-07-24T03:09:16;22.00;64.60
74511;DHT22;62991;50.040;18.400;2023-07-24T03:12:17;21.90;64.90
74511;DHT22;62991;50.040;18.400;2023-07-24T03:15:18;21.80;65.20
74511;DHT22;62991;50.040;18.400;2023-07-24T03:18:19;21.80;65.40
74511;DHT22;62991;50.040;18.400;2023-07-24T03:21:20;21.80;65.70
74511;DHT22;62991;50.040;18.400;2023-07-24T03:24:21;21.90;65.40
74511;DHT22;62991;50.040;18.400;2023-07-24T03:27:22;21.80;65.80
74511;DHT22;62991;50.040;18.400;2023-07-24T03:30:22;21.80;66.00
74511;DHT22;62991;50.040;18.400;2023-07-24T03:33:23;21.90;66.10
74511;DHT22;62991;50.040;18.400;2023-07-24T03:36:24;21.80;66.40
74511;DHT22;62991;50.040;18.400;2023-07-24T03:39:24;21.80;66.60
74511;DHT22;62991;50.040;18.400;2023-07-24T03:42:30;21.80;66.90
74511;DHT22;62991;50.040;18.400;2023-07-24T03:45:31;21.80;67.20
74511;DHT22;62991;50.040;18.400;2023-07-24T03:48:32;21.60;67.80
74511;DHT22;62991;50.040;18.400;2023-07-24T03:51:33;21.70;67.90
74511;DHT22;62991;50.040;18.400;2023-07-24T03:54:33;21.70;68.20
74511;DHT22;62991;50.040;18.400;2023-07-24T03:57:34;21.70;68.20
74511;DHT22;62991;50.040;18.400;2023-07-24T04:00:35;21.40;69.10
74511;DHT22;62991;50.040;18.400;2023-07-24T04:03:36;21.50;68.90
74511;DHT22;62991;50.040;18.400;2023-07-24T04:06:36;21.60;68.80
74511;DHT22;62991;50.040;18.400;2023-07-24T04:09:37;21.50;68.90
74511;DHT22;62991;50.040;18.400;2023-07-24T04:12:38;21.60;69.00
74511;DHT22;62991;50.040;18.400;2023-07-24T04:15:38;21.70;68.60
74511;DHT22;62991;50.040;18.400;2023-07-24T04:18:40;21.80;68.30
74511;DHT22;62991;50.040;18.400;2023-07-24T04:21:40;21.90;68.20
74511;DHT22;62991;50.040;18.400;2023-07-24T04:24:41;21.90;68.20
74511;DHT22;62991;50.040;18.400;2023-07-24T04:27:42;21.90;68.40
74511;DHT22;62991;50.040;18.400;2023-07-24T04:30:42;21.90;68.60
74511;DHT22;62991;50.040;18.400;2023-07-24T04:33:43;21.80;69.10
74511;DHT22;62991;50.040;18.400;2023-07-24T04:36:44;21.70;69.40
74511;DHT22;62991;50.040;18.400;2023-07-24T04:39:44;21.80;69.40
74511;DHT22;62991;50.040;18.400;2023-07-24T04:42:45;21.80;69.50
74511;DHT22;62991;50.040;18.400;2023-07-24T04:45:46;21.90;69.40
74511;DHT22;62991;50.040;18.400;2023-07-24T04:48:46;21.90;69.50
74511;DHT22;62991;50.040;18.400;2023-07-24T04:51:47;22.00;69.30
74511;DHT22;62991;50.040;18.400;2023-07-24T04:54:48;22.00;69.10
74511;DHT22;62991;50.040;18.400;2023-07-24T04:57:48;22.00;69.10
74511;DHT22;62991;50.040;18.400;2023-07-24T05:00:49;22.10;69.10
74511;DHT22;62991;50.040;18.400;2023-07-24T05:03:50;22.10;69.30
74511;DHT22;62991;50.040;18.400;2023-07-24T05:06:50;22.10;69.10
74511;DHT22;62991;50.040;18.400;2023-07-24T05:09:51;22.20;69.10
74511;DHT22;62991;50.040;18.400;2023-07-24T05:12:52;22.30;69.00
74511;DHT22;62991;50.040;18.400;2023-07-24T05:15:53;22.50;68.80
74511;DHT22;62991;50.040;18.400;2023-07-24T05:18:53;22.60;68.70
74511;DHT22;62991;50.040;18.400;2023-07-24T05:21:54;22.70;68.30
74511;DHT22;62991;50.040;18.400;2023-07-24T05:24:55;22.70;68.60
74511;DHT22;62991;50.040;18.400;2023-07-24T05:27:55;22.70;68.20
74511;DHT22;62991;50.040;18.400;2023-07-24T05:31:00;22.60;68.90
74511;DHT22;62991;50.040;18.400;2023-07-24T05:34:01;22.70;68.70
74511;DHT22;62991;50.040;18.400;2023-07-24T05:37:05;22.70;68.80
74511;DHT22;62991;50.040;18.400;2023-07-24T05:40:06;22.70;68.80
74511;DHT22;62991;50.040;18.400;2023-07-24T05:43:07;22.70;69.10
74511;DHT22;62991;50.040;18.400;2023-07-24T05:46:08;22.70;68.70
74511;DHT22;62991;50.040;18.400;2023-07-24T05:49:08;22.80;68.30
74511;DHT22;62991;50.040;18.400;2023-07-24T05:52:09;22.80;68.60
74511;DHT22;62991;50.040;18.400;2023-07-24T05:55:10;22.80;67.90
74511;DHT22;62991;50.040;18.400;2023-07-24T05:58:10;22.80;68.30
74511;DHT22;62991;50.040;18.400;2023-07-24T06:01:11;22.80;68.30
74511;DHT22;62991;50.040;18.400;2023-07-24T06:04:12;23.00;68.10
74511;DHT22;62991;50.040;18.400;2023-07-24T06:07:13;23.10;67.70
74511;DHT22;62991;50.040;18.400;2023-07-24T06:10:14;23.20;67.90
74511;DHT22;62991;50.040;18.400;2023-07-24T06:13:15;23.20;67.30
74511;DHT22;62991;50.040;18.400;2023-07-24T06:16:16;23.20;67.60
74511;DHT22;62991;50.040;18.400;2023-07-24T06:19:17;23.20;68.10
74511;DHT22;62991;50.040;18.400;2023-07-24T06:22:18;23.20;67.80
74511;DHT22;62991;50.040;18.400;2023-07-24T06:25:18;23.30;67.30
74511;DHT22;62991;50.040;18.400;2023-07-24T06:28:19;23.40;67.20
74511;DHT22;62991;50.040;18.400;2023-07-24T06:31:20;23.40;67.40
74511;DHT22;62991;50.040;18.400;2023-07-24T06:34:20;23.40;66.50
74511;DHT22;62991;50.040;18.400;2023-07-24T06:37:21;23.40;66.50
74511;DHT22;62991;50.040;18.400;2023-07-24T06:40:22;23.40;67.00
74511;DHT22;62991;50.040;18.400;2023-07-24T06:43:22;23.50;65.70
74511;DHT22;62991;50.040;18.400;2023-07-24T06:46:23;23.50;66.30
74511;DHT22;62991;50.040;18.400;2023-07-24T06:49:24;23.60;66.50
74511;DHT22;62991;50.040;18.400;2023-07-24T06:52:24;23.80;66.40
74511;DHT22;62991;50.040;18.400;2023-07-24T06:55:25;23.90;65.90
74511;DHT22;62991;50.040;18.400;2023-07-24T06:58:26;24.10;65.20
74511;DHT22;62991;50.040;18.400;2023-07-24T07:01:26;24.10;64.00
74511;DHT22;62991;50.040;18.400;2023-07-24T07:04:27;24.10;64.00
74511;DHT22;62991;50.040;18.400;2023-07-24T07:07:28;24.20;64.30
74511;DHT22;62991;50.040;18.400;2023-07-24T07:10:30;24.30;63.00
74511;DHT22;62991;50.040;18.400;2023-07-24T07:13:31;24.30;62.10
74511;DHT22;62991;50.040;18.400;2023-07-24T07:16:31;24.20;61.70
74511;DHT22;62991;50.040;18.400;2023-07-24T07:19:32;24.30;61.60
74511;DHT22;62991;50.040;18.400;2023-07-24T07:22:33;24.30;62.30
74511;DHT22;62991;50.040;18.400;2023-07-24T07:25:33;24.40;62.40
74511;DHT22;62991;50.040;18.400;2023-07-24T07:28:34;24.50;61.20
74511;DHT22;62991;50.040;18.400;2023-07-24T07:31:35;24.50;60.90
74511;DHT22;62991;50.040;18.400;2023-07-24T07:34:35;24.60;61.60
74511;DHT22;62991;50.040;18.400;2023-07-24T07:37:38;24.50;60.80
74511;DHT22;62991;50.040;18.400;2023-07-24T07:40:39;24.40;61.30
74511;DHT22;62991;50.040;18.400;2023-07-24T07:43:40;24.50;62.50
74511;DHT22;62991;50.040;18.400;2023-07-24T07:46:41;24.60;61.00
74511;DHT22;62991;50.040;18.400;2023-07-24T07:49:41;24.70;62.10
74511;DHT22;62991;50.040;18.400;2023-07-24T07:52:42;24.70;59.70
74511;DHT22;62991;50.040;18.400;2023-07-24T07:55:43;24.80;59.70
74511;DHT22;62991;50.040;18.400;2023-07-24T07:58:43;24.80;59.60
74511;DHT22;62991;50.040;18.400;2023-07-24T08:01:44;24.90;60.50
74511;DHT22;62991;50.040;18.400;2023-07-24T08:04:46;25.00;59.70
74511;DHT22;62991;50.040;18.400;2023-07-24T08:07:47;25.00;60.00
74511;DHT22;62991;50.040;18.400;2023-07-24T08:10:47;25.00;59.90
74511;DHT22;62991;50.040;18.400;2023-07-24T08:13:48;25.00;58.80
74511;DHT22;62991;50.040;18.400;2023-07-24T08:16:49;25.00;59.00
74511;DHT22;62991;50.040;18.400;2023-07-24T08:19:50;25.00;59.70
74511;DHT22;62991;50.040;18.400;2023-07-24T08:22:50;25.00;59.60
74511;DHT22;62991;50.040;18.400;2023-07-24T08:25:54;24.90;58.70
74511;DHT22;62991;50.040;18.400;2023-07-24T08:28:55;24.80;58.50
74511;DHT22;62991;50.040;18.400;2023-07-24T08:31:55;24.80;57.80
74511;DHT22;62991;50.040;18.400;2023-07-24T08:34:56;24.70;57.40
74511;DHT22;62991;50.040;18.400;2023-07-24T08:37:57;24.70;58.10
74511;DHT22;62991;50.040;18.400;2023-07-24T08:41:15;24.60;58.10
74511;DHT22;62991;50.040;18.400;2023-07-24T08:44:16;24.70;58.40
74511;DHT22;62991;50.040;18.400;2023-07-24T08:47:18;24.70;58.10
74511;DHT22;62991;50.040;18.400;2023-07-24T08:50:20;24.80;57.90
74511;DHT22;62991;50.040;18.400;2023-07-24T08:53:21;24.80;58.60
74511;DHT22;62991;50.040;18.400;2023-07-24T08:56:22;25.00;58.50
74511;DHT22;62991;50.040;18.400;2023-07-24T08:59:22;25.00;58.40
74511;DHT22;62991;50.040;18.400;2023-07-24T09:02:23;25.10;56.90
74511;DHT22;62991;50.040;18.400;2023-07-24T09:05:24;25.20;53.00
74511;DHT22;62991;50.040;18.400;2023-07-24T09:08:31;25.30;52.40
74511;DHT22;62991;50.040;18.400;2023-07-24T09:11:32;25.40;51.50
74511;DHT22;62991;50.040;18.400;2023-07-24T09:14:32;25.50;51.20
74511;DHT22;62991;50.040;18.400;2023-07-24T09:17:33;25.60;50.70
74511;DHT22;62991;50.040;18.400;2023-07-24T09:20:41;25.70;50.40
74511;DHT22;62991;50.040;18.400;2023-07-24T09:23:42;25.80;50.40
74511;DHT22;62991;50.040;18.400;2023-07-24T09:26:51;25.90;51.30
74511;DHT22;62991;50.040;18.400;2023-07-24T09:29:53;26.10;50.00
74511;DHT22;62991;50.040;18.400;2023-07-24T09:32:54;26.20;48.80
74511;DHT22;62991;50.040;18.400;2023-07-24T09:36:02;26.30;49.40
74511;DHT22;62991;50.040;18.400;2023-07-24T09:39:03;26.30;49.30
74511;DHT22;62991;50.040;18.400;2023-07-24T09:42:06;26.30;48.70
74511;DHT22;62991;50.040;18.400;2023-07-24T09:45:07;26.30;49.00
74511;DHT22;62991;50.040;18.400;2023-07-24T09:48:09;26.20;49.20
74511;DHT22;62991;50.040;18.400;2023-07-24T09:51:12;26.20;49.00
74511;DHT22;62991;50.040;18.400;2023-07-24T09:54:20;26.20;49.10
74511;DHT22;62991;50.040;18.400;2023-07-24T09:57:23;26.10;49.10
74511;DHT22;62991;50.040;18.400;2023-07-24T10:00:24;26.20;49.10
74511;DHT22;62991;50.040;18.400;2023-07-24T10:03:25;26.10;49.90
74511;DHT22;62991;50.040;18.400;2023-07-24T10:06:27;26.10;48.80
74511;DHT22;62991;50.040;18.400;2023-07-24T10:09:30;26.10;48.70
74511;DHT22;62991;50.040;18.400;2023-07-24T10:12:31;26.10;49.50
74511;DHT22;62991;50.040;18.400;2023-07-24T10:15:33;26.10;49.00
74511;DHT22;62991;50.040;18.400;2023-07-24T10:18:35;26.10;47.10
74511;DHT22;62991;50.040;18.400;2023-07-24T10:21:36;26.00;46.60
74511;DHT22;62991;50.040;18.400;2023-07-24T10:24:37;26.00;46.50
74511;DHT22;62991;50.040;18.400;2023-07-24T10:27:45;26.00;46.10
74511;DHT22;62991;50.040;18.400;2023-07-24T10:30:55;26.00;46.40
74511;DHT22;62991;50.040;18.400;2023-07-24T10:34:04;26.00;46.70
74511;DHT22;62991;50.040;18.400;2023-07-24T10:37:08;26.10;47.60
74511;DHT22;62991;50.040;18.400;2023-07-24T10:40:21;26.20;48.40
74511;DHT22;62991;50.040;18.400;2023-07-24T10:43:22;26.40;46.90
74511;DHT22;62991;50.040;18.400;2023-07-24T10:46:22;26.50;46.90
74511;DHT22;62991;50.040;18.400;2023-07-24T10:49:23;26.70;45.50
74511;DHT22;62991;50.040;18.400;2023-07-24T10:52:31;26.90;45.80
74511;DHT22;62991;50.040;18.400;2023-07-24T10:55:35;27.10;45.40
74511;DHT22;62991;50.040;18.400;2023-07-24T10:58:36;27.20;45.10
74511;DHT22;62991;50.040;18.400;2023-07-24T11:01:37;27.40;45.00
74511;DHT22;62991;50.040;18.400;2023-07-24T11:04:39;27.50;45.50
74511;DHT22;62991;50.040;18.400;2023-07-24T11:07:40;27.50;43.60
74511;DHT22;62991;50.040;18.400;2023-07-24T11:10:48;27.50;44.20
74511;DHT22;62991;50.040;18.400;2023-07-24T11:13:49;27.60;44.80
74511;DHT22;62991;50.040;18.400;2023-07-24T11:16:50;27.50;42.90
74511;DHT22;62991;50.040;18.400;2023-07-24T11:19:50;27.50;44.10
74511;DHT22;62991;50.040;18.400;2023-07-24T11:22:51;27.60;44.40
74511;DHT22;62991;50.040;18.400;2023-07-24T11:25:53;27.70;44.40
74511;DHT22;62991;50.040;18.400;2023-07-24T11:28:54;27.90;44.40
74511;DHT22;62991;50.040;18.400;2023-07-24T11:31:55;28.10;46.10
74511;DHT22;62991;50.040;18.400;2023-07-24T11:34:57;28.30;46.40
74511;DHT22;62991;50.040;18.400;2023-07-24T11:37:57;28.50;45.00
74511;DHT22;62991;50.040;18.400;2023-07-24T11:40:58;28.80;44.80
74511;DHT22;62991;50.040;18.400;2023-07-24T11:43:59;28.80;45.00
74511;DHT22;62991;50.040;18.400;2023-07-24T11:47:04;28.90;44.60
74511;DHT22;62991;50.040;18.400;2023-07-24T11:50:06;29.00;44.90
74511;DHT22;62991;50.040;18.400;2023-07-24T11:53:07;29.10;42.20
74511;DHT22;62991;50.040;18.400;2023-07-24T11:56:14;29.30;43.00
74511;DHT22;62991;50.040;18.400;2023-07-24T11:59:15;29.50;42.90
74511;DHT22;62991;50.040;18.400;2023-07-24T12:02:16;29.80;40.90
74511;DHT22;62991;50.040;18.400;2023-07-24T12:05:16;30.00;41.50
74511;DHT22;62991;50.040;18.400;2023-07-24T12:08:20;29.90;41.30
74511;DHT22;62991;50.040;18.400;2023-07-24T12:11:25;30.00;40.50
74511;DHT22;62991;50.040;18.400;2023-07-24T12:14:25;30.10;41.60
74511;DHT22;62991;50.040;18.400;2023-07-24T12:17:26;30.10;40.10
74511;DHT22;62991;50.040;18.400;2023-07-24T12:20:27;30.10;40.80
74511;DHT22;62991;50.040;18.400;2023-07-24T12:23:28;30.20;40.70
74511;DHT22;62991;50.040;18.400;2023-07-24T12:26:29;30.30;39.80
74511;DHT22;62991;50.040;18.400;2023-07-24T12:29:29;30.40;40.00
74511;DHT22;62991;50.040;18.400;2023-07-24T12:32:30;30.50;39.50
74511;DHT22;62991;50.040;18.400;2023-07-24T12:35:31;30.60;40.00
74511;DHT22;62991;50.040;18.400;2023-07-24T12:38:32;30.60;40.20
74511;DHT22;62991;50.040;18.400;2023-07-24T12:41:32;30.70;39.70
74511;DHT22;62991;50.040;18.400;2023-07-24T12:44:33;31.00;39.60
74511;DHT22;62991;50.040;18.400;2023-07-24T12:47:34;31.10;40.50
74511;DHT22;62991;50.040;18.400;2023-07-24T12:50:34;31.30;39.00
74511;DHT22;62991;50.040;18.400;2023-07-24T12:53:35;31.50;40.10
74511;DHT22;62991;50.040;18.400;2023-07-24T12:56:35;31.60;39.20
74511;DHT22;62991;50.040;18.400;2023-07-24T12:59:36;31.80;39.90
74511;DHT22;62991;50.040;18.400;2023-07-24T13:02:37;31.90;40.00
74511;DHT22;62991;50.040;18.400;2023-07-24T13:05:38;32.10;39.10
74511;DHT22;62991;50.040;18.400;2023-07-24T13:08:39;32.20;39.60
74511;DHT22;62991;50.040;18.400;2023-07-24T13:11:39;32.30;38.40
74511;DHT22;62991;50.040;18.400;2023-07-24T13:14:40;32.40;38.30
74511;DHT22;62991;50.040;18.400;2023-07-24T13:17:41;32.30;36.70
74511;DHT22;62991;50.040;18.400;2023-07-24T13:20:41;32.30;37.60
74511;DHT22;62991;50.040;18.400;2023-07-24T13:23:42;32.40;37.50
74511;DHT22;62991;50.040;18.400;2023-07-24T13:26:43;32.30;37.10
74511;DHT22;62991;50.040;18.400;2023-07-24T13:29:44;32.10;38.00
74511;DHT22;62991;50.040;18.400;2023-07-24T13:32:45;32.00;38.40
74511;DHT22;62991;50.040;18.400;2023-07-24T13:35:45;31.90;38.60
74511;DHT22;62991;50.040;18.400;2023-07-24T13:38:46;32.00;39.20
74511;DHT22;62991;50.040;18.400;2023-07-24T13:41:47;32.10;39.10
74511;DHT22;62991;50.040;18.400;2023-07-24T13:44:47;32.10;39.70
74511;DHT22;62991;50.040;18.400;2023-07-24T13:47:48;32.30;40.30
74511;DHT22;62991;50.040;18.400;2023-07-24T13:50:49;32.50;39.30
74511;DHT22;62991;50.040;18.400;2023-07-24T13:53:50;32.40;39.90
74511;DHT22;62991;50.040;18.400;2023-07-24T13:56:52;32.10;40.40
74511;DHT22;62991;50.040;18.400;2023-07-24T13:59:53;31.60;40.80
74511;DHT22;62991;50.040;18.400;2023-07-24T14:02:54;31.20;41.90
74511;DHT22;62991;50.040;18.400;2023-07-24T14:05:55;31.10;41.60
74511;DHT22;62991;50.040;18.400;2023-07-24T14:08:56;30.90;42.20
74511;DHT22;62991;50.040;18.400;2023-07-24T14:11:57;30.60;42.50
74511;DHT22;62991;50.040;18.400;2023-07-24T14:14:57;30.50;42.90
74511;DHT22;62991;50.040;18.400;2023-07-24T14:17:58;30.50;43.30
74511;DHT22;62991;50.040;18.400;2023-07-24T14:20:59;30.50;43.90
74511;DHT22;62991;50.040;18.400;2023-07-24T14:24:00;30.30;43.40
74511;DHT22;62991;50.040;18.400;2023-07-24T14:27:00;30.20;43.90
74511;DHT22;62991;50.040;18.400;2023-07-24T14:30:01;30.10;44.10
74511;DHT22;62991;50.040;18.400;2023-07-24T14:33:02;29.90;44.60
74511;DHT22;62991;50.040;18.400;2023-07-24T14:36:03;29.90;44.60
74511;DHT22;62991;50.040;18.400;2023-07-24T14:39:04;29.80;44.50
74511;DHT22;62991;50.040;18.400;2023-07-24T14:42:05;29.70;44.80
74511;DHT22;62991;50.040;18.400;2023-07-24T14:45:06;29.00;44.10
74511;DHT22;62991;50.040;18.400;2023-07-24T14:48:07;28.40;44.20
74511;DHT22;62991;50.040;18.400;2023-07-24T14:51:13;28.00;44.90
74511;DHT22;62991;50.040;18.400;2023-07-24T14:54:13;27.80;45.40
74511;DHT22;62991;50.040;18.400;2023-07-24T14:57:14;27.60;46.00
74511;DHT22;62991;50.040;18.400;2023-07-24T15:00:15;27.40;46.70
74511;DHT22;62991;50.040;18.400;2023-07-24T15:03:16;27.20;47.70
74511;DHT22;62991;50.040;18.400;2023-07-24T15:06:17;26.80;49.30
74511;DHT22;62991;50.040;18.400;2023-07-24T15:09:18;24.50;64.90
74511;DHT22;62991;50.040;18.400;2023-07-24T15:12:18;21.90;72.00
74511;DHT22;62991;50.040;18.400;2023-07-24T15:15:19;21.40;73.30
74511;DHT22;62991;50.040;18.400;2023-07-24T15:18:20;21.00;72.60
74511;DHT22;62991;50.040;18.400;2023-07-24T15:21:20;21.00;73.50
74511;DHT22;62991;50.040;18.400;2023-07-24T15:24:21;21.00;68.90
74511;DHT22;62991;50.040;18.400;2023-07-24T15:27:22;21.30;68.90
74511;DHT22;62991;50.040;18.400;2023-07-24T15:30:23;21.40;69.60
74511;DHT22;62991;50.040;18.400;2023-07-24T15:33:24;21.50;67.40
74511;DHT22;62991;50.040;18.400;2023-07-24T15:36:25;21.80;65.70
74511;DHT22;62991;50.040;18.400;2023-07-24T15:39:26;22.00;66.00
74511;DHT22;62991;50.040;18.400;2023-07-24T15:42:26;22.00;64.40
74511;DHT22;62991;50.040;18.400;2023-07-24T15:45:27;22.10;62.70
74511;DHT22;62991;50.040;18.400;2023-07-24T15:48:28;22.30;64.20
74511;DHT22;62991;50.040;18.400;2023-07-24T15:51:28;22.60;61.60
74511;DHT22;62991;50.040;18.400;2023-07-24T15:54:30;23.20;55.00
74511;DHT22;62991;50.040;18.400;2023-07-24T15:57:30;23.50;54.50
74511;DHT22;62991;50.040;18.400;2023-07-24T16:00:31;23.30;59.90
74511;DHT22;62991;50.040;18.400;2023-07-24T16:03:32;23.00;61.40
74511;DHT22;62991;50.040;18.400;2023-07-24T16:06:32;22.50;65.60
74511;DHT22;62991;50.040;18.400;2023-07-24T16:09:33;22.40;66.40
74511;DHT22;62991;50.040;18.400;2023-07-24T16:12:34;22.40;67.40
74511;DHT22;62991;50.040;18.400;2023-07-24T16:15:34;22.10;68.10
74511;DHT22;62991;50.040;18.400;2023-07-24T16:18:35;22.20;68.70
74511;DHT22;62991;50.040;18.400;2023-07-24T16:21:36;22.40;67.20
74511;DHT22;62991;50.040;18.400;2023-07-24T16:24:37;22.70;67.80
74511;DHT22;62991;50.040;18.400;2023-07-24T16:27:38;23.40;67.30
74511;DHT22;62991;50.040;18.400;2023-07-24T16:30:38;23.70;67.60
74511;DHT22;62991;50.040;18.400;2023-07-24T16:33:39;24.00;68.80
74511;DHT22;62991;50.040;18.400;2023-07-24T16:36:40;24.00;68.90
74511;DHT22;62991;50.040;18.400;2023-07-24T16:39:41;24.00;65.90
74511;DHT22;62991;50.040;18.400;2023-07-24T16:42:42;23.90;66.30
74511;DHT22;62991;50.040;18.400;2023-07-24T16:45:42;23.80;66.40
74511;DHT22;62991;50.040;18.400;2023-07-24T16:48:46;23.60;65.40
74511;DHT22;62991;50.040;18.400;2023-07-24T16:51:49;23.10;67.50
74511;DHT22;62991;50.040;18.400;2023-07-24T16:54:50;23.10;68.50
74511;DHT22;62991;50.040;18.400;2023-07-24T16:57:51;23.10;68.90
74511;DHT22;62991;50.040;18.400;2023-07-24T17:00:52;23.00;68.20
74511;DHT22;62991;50.040;18.400;2023-07-24T17:03:52;22.50;69.80
74511;DHT22;62991;50.040;18.400;2023-07-24T17:06:53;21.80;69.00
74511;DHT22;62991;50.040;18.400;2023-07-24T17:09:53;21.50;70.50
74511;DHT22;62991;50.040;18.400;2023-07-24T17:12:54;21.30;71.20
74511;DHT22;62991;50.040;18.400;2023-07-24T17:15:55;21.40;72.30
74511;DHT22;62991;50.040;18.400;2023-07-24T17:18:55;21.60;72.40
74511;DHT22;62991;50.040;18.400;2023-07-24T17:21:56;21.40;73.00
74511;DHT22;62991;50.040;18.400;2023-07-24T17:24:57;21.30;74.00
74511;DHT22;62991;50.040;18.400;2023-07-24T17:27:58;21.30;73.80
74511;DHT22;62991;50.040;18.400;2023-07-24T17:30:59;20.70;75.80
74511;DHT22;62991;50.040;18.400;2023-07-24T17:33:59;20.20;78.40
74511;DHT22;62991;50.040;18.400;2023-07-24T17:37:00;19.90;80.60
74511;DHT22;62991;50.040;18.400;2023-07-24T17:40:11;20.10;78.60
74511;DHT22;62991;50.040;18.400;2023-07-24T17:43:11;20.40;78.40
74511;DHT22;62991;50.040;18.400;2023-07-24T17:46:13;20.80;77.60
74511;DHT22;62991;50.040;18.400;2023-07-24T17:49:14;21.20;76.80
74511;DHT22;62991;50.040;18.400;2023-07-24T17:52:15;21.50;76.90
74511;DHT22;62991;50.040;18.400;2023-07-24T17:55:16;21.70;76.20
74511;DHT22;62991;50.040;18.400;2023-07-24T17:58:17;21.90;76.70
74511;DHT22;62991;50.040;18.400;2023-07-24T18:01:17;22.00;76.40
74511;DHT22;62991;50.040;18.400;2023-07-24T18:04:21;22.10;74.80
74511;DHT22;62991;50.040;18.400;2023-07-24T18:07:21;22.10;74.60
74511;DHT22;62991;50.040;18.400;2023-07-24T18:10:22;22.10;74.70
74511;DHT22;62991;50.040;18.400;2023-07-24T18:13:23;22.20;75.30
74511;DHT22;62991;50.040;18.400;2023-07-24T18:16:23;22.30;74.40
74511;DHT22;62991;50.040;18.400;2023-07-24T18:19:24;22.30;73.70
74511;DHT22;62991;50.040;18.400;2023-07-24T18:22:25;22.40;74.10
74511;DHT22;62991;50.040;18.400;2023-07-24T18:25:26;22.40;74.30
74511;DHT22;62991;50.040;18.400;2023-07-24T18:28:27;22.40;73.70
74511;DHT22;62991;50.040;18.400;2023-07-24T18:31:29;22.40;73.50
74511;DHT22;62991;50.040;18.400;2023-07-24T18:34:29;22.40;73.70
74511;DHT22;62991;50.040;18.400;2023-07-24T18:37:30;22.40;73.40
74511;DHT22;62991;50.040;18.400;2023-07-24T18:40:31;22.20;73.70
74511;DHT22;62991;50.040;18.400;2023-07-24T18:43:31;22.10;74.20
74511;DHT22;62991;50.040;18.400;2023-07-24T18:46:32;22.10;74.10
74511;DHT22;62991;50.040;18.400;2023-07-24T18:49:33;22.10;74.10